sensor_id;sensor_type;location;lat;lon;timestamp;P1;durP1;ratioP1;P2;durP2;ratioP2
22282;SDS011;11310;51.528;21.204;2022-07-10T00:00:26;2.20;;;0.85;;
22282;SDS011;11310;51.528;21.204;2022-07-10T00:02:55;2.78;;;1.08;;
22282;SDS011;11310;51.528;21.204;2022-07-10T00:05:25;3.25;;;1.02;;
22282;SDS011;11310;51.528;21.204;2022-07-10T00:07:55;6.18;;;1.25;;
22282;SDS011;11310;51.528;21.204;2022-07-10T00:10:24;2.05;;;1.00;;
22282;SDS011;11310;51.528;21.204;2022-07-10T00:12:53;2.80;;;0.95;;
22282;SDS011;11310;51.528;21.204;2022-07-10T00:15:21;2.22;;;0.90;;
22282;SDS011;11310;51.528;21.204;2022-07-10T00:17:50;3.05;;;1.35;;
22282;SDS011;11310;51.528;21.204;2022-07-10T00:20:19;3.58;;;0.90;;
22282;SDS011;11310;51.528;21.204;2022-07-10T00:22:48;2.38;;;1.05;;
22282;SDS011;11310;51.528;21.204;2022-07-10T00:25:18;1.77;;;1.10;;
22282;SDS011;11310;51.528;21.204;2022-07-10T00:27:46;2.00;;;1.17;;
22282;SDS011;11310;51.528;21.204;2022-07-10T00:30:15;3.17;;;1.10;;
22282;SDS011;11310;51.528;21.204;2022-07-10T00:32:43;3.35;;;1.48;;
22282;SDS011;11310;51.528;21.204;2022-07-10T00:35:12;3.15;;;1.25;;
22282;SDS011;11310;51.528;21.204;2022-07-10T00:37:41;2.58;;;1.02;;
22282;SDS011;11310;51.528;21.204;2022-07-10T00:40:09;2.63;;;1.27;;
22282;SDS011;11310;51.528;21.204;2022-07-10T00:42:39;3.25;;;1.58;;
22282;SDS011;11310;51.528;21.204;2022-07-10T00:45:08;2.20;;;1.30;;
22282;SDS011;11310;51.528;21.204;2022-07-10T00:47:38;3.67;;;1.23;;
22282;SDS011;11310;51.528;21.204;2022-07-10T00:50:09;3.38;;;1.50;;
22282;SDS011;11310;51.528;21.204;2022-07-10T00:52:39;2.58;;;1.20;;
22282;SDS011;11310;51.528;21.204;2022-07-10T00:55:09;5.35;;;2.17;;
22282;SDS011;11310;51.528;21.204;2022-07-10T00:57:37;5.65;;;1.50;;
22282;SDS011;11310;51.528;21.204;2022-07-10T01:00:11;4.60;;;1.27;;
22282;SDS011;11310;51.528;21.204;2022-07-10T01:02:41;2.15;;;1.30;;
22282;SDS011;11310;51.528;21.204;2022-07-10T01:05:10;3.42;;;1.48;;
22282;SDS011;11310;51.528;21.204;2022-07-10T01:07:40;3.28;;;1.15;;
22282;SDS011;11310;51.528;21.204;2022-07-10T01:10:08;2.17;;;1.30;;
22282;SDS011;11310;51.528;21.204;2022-07-10T01:12:40;3.00;;;1.27;;
22282;SDS011;11310;51.528;21.204;2022-07-10T01:15:10;4.20;;;0.93;;
22282;SDS011;11310;51.528;21.204;2022-07-10T01:17:39;3.95;;;2.03;;
22282;SDS011;11310;51.528;21.204;2022-07-10T01:20:08;1.63;;;1.00;;
22282;SDS011;11310;51.528;21.204;2022-07-10T01:22:39;3.67;;;1.30;;
22282;SDS011;11310;51.528;21.204;2022-07-10T01:25:07;2.00;;;1.08;;
22282;SDS011;11310;51.528;21.204;2022-07-10T01:27:38;1.50;;;1.15;;
22282;SDS011;11310;51.528;21.204;2022-07-10T01:30:07;2.83;;;1.40;;
22282;SDS011;11310;51.528;21.204;2022-07-10T01:32:37;5.45;;;1.17;;
22282;SDS011;11310;51.528;21.204;2022-07-10T01:35:09;3.67;;;1.00;;
22282;SDS011;11310;51.528;21.204;2022-07-10T01:37:41;1.48;;;1.00;;
22282;SDS011;11310;51.528;21.204;2022-07-10T01:40:09;1.73;;;0.95;;
22282;SDS011;11310;51.528;21.204;2022-07-10T01:42:39;2.15;;;1.13;;
22282;SDS011;11310;51.528;21.204;2022-07-10T01:45:09;1.73;;;0.90;;
22282;SDS011;11310;51.528;21.204;2022-07-10T01:47:39;1.38;;;1.00;;
22282;SDS011;11310;51.528;21.204;2022-07-10T01:50:09;2.35;;;1.20;;
22282;SDS011;11310;51.528;21.204;2022-07-10T01:52:39;2.58;;;1.00;;
22282;SDS011;11310;51.528;21.204;2022-07-10T01:55:08;3.33;;;1.20;;
22282;SDS011;11310;51.528;21.204;2022-07-10T01:57:38;3.05;;;0.95;;
22282;SDS011;11310;51.528;21.204;2022-07-10T02:00:08;3.72;;;1.40;;
22282;SDS011;11310;51.528;21.204;2022-07-10T02:02:41;2.45;;;1.20;;
22282;SDS011;11310;51.528;21.204;2022-07-10T02:05:29;2.63;;;1.02;;
22282;SDS011;11310;51.528;21.204;2022-07-10T02:08:00;1.50;;;1.00;;
22282;SDS011;11310;51.528;21.204;2022-07-10T02:10:30;6.22;;;1.10;;
22282;SDS011;11310;51.528;21.204;2022-07-10T02:13:02;2.95;;;1.20;;
22282;SDS011;11310;51.528;21.204;2022-07-10T02:15:31;4.78;;;0.90;;
22282;SDS011;11310;51.528;21.204;2022-07-10T02:18:00;1.45;;;0.90;;
22282;SDS011;11310;51.528;21.204;2022-07-10T02:20:29;3.53;;;1.08;;
22282;SDS011;11310;51.528;21.204;2022-07-10T02:23:01;2.08;;;1.00;;
22282;SDS011;11310;51.528;21.204;2022-07-10T02:25:30;2.55;;;1.02;;
22282;SDS011;11310;51.528;21.204;2022-07-10T02:27:58;3.03;;;1.08;;
22282;SDS011;11310;51.528;21.204;2022-07-10T02:30:27;5.25;;;1.15;;
22282;SDS011;11310;51.528;21.204;2022-07-10T02:32:57;2.20;;;1.08;;
22282;SDS011;11310;51.528;21.204;2022-07-10T02:35:26;2.25;;;1.13;;
22282;SDS011;11310;51.528;21.204;2022-07-10T02:37:54;2.65;;;1.08;;
22282;SDS011;11310;51.528;21.204;2022-07-10T02:40:27;2.47;;;1.10;;
22282;SDS011;11310;51.528;21.204;2022-07-10T02:42:56;3.58;;;1.10;;
22282;SDS011;11310;51.528;21.204;2022-07-10T02:45:25;6.18;;;1.27;;
22282;SDS011;11310;51.528;21.204;2022-07-10T02:47:56;1.92;;;1.00;;
22282;SDS011;11310;51.528;21.204;2022-07-10T02:52:57;3.20;;;1.55;;
22282;SDS011;11310;51.528;21.204;2022-07-10T02:55:28;2.30;;;1.40;;
22282;SDS011;11310;51.528;21.204;2022-07-10T02:57:58;2.55;;;1.17;;
22282;SDS011;11310;51.528;21.204;2022-07-10T03:00:28;2.85;;;1.20;;
22282;SDS011;11310;51.528;21.204;2022-07-10T03:02:57;2.67;;;1.08;;
22282;SDS011;11310;51.528;21.204;2022-07-10T03:05:26;2.50;;;1.20;;
22282;SDS011;11310;51.528;21.204;2022-07-10T03:07:55;3.08;;;1.50;;
22282;SDS011;11310;51.528;21.204;2022-07-10T03:10:25;2.28;;;1.17;;
22282;SDS011;11310;51.528;21.204;2022-07-10T03:12:58;3.85;;;1.20;;
22282;SDS011;11310;51.528;21.204;2022-07-10T03:15:26;4.30;;;1.33;;
22282;SDS011;11310;51.528;21.204;2022-07-10T03:17:55;5.28;;;1.50;;
22282;SDS011;11310;51.528;21.204;2022-07-10T03:20:24;2.70;;;1.38;;
22282;SDS011;11310;51.528;21.204;2022-07-10T03:22:53;3.88;;;1.50;;
22282;SDS011;11310;51.528;21.204;2022-07-10T03:25:22;3.72;;;1.40;;
22282;SDS011;11310;51.528;21.204;2022-07-10T03:27:51;1.98;;;1.10;;
22282;SDS011;11310;51.528;21.204;2022-07-10T03:30:21;5.05;;;1.25;;
22282;SDS011;11310;51.528;21.204;2022-07-10T03:32:54;2.50;;;1.47;;
22282;SDS011;11310;51.528;21.204;2022-07-10T03:35:22;2.30;;;1.17;;
22282;SDS011;11310;51.528;21.204;2022-07-10T03:37:52;3.13;;;1.55;;
22282;SDS011;11310;51.528;21.204;2022-07-10T03:40:21;4.03;;;1.60;;
22282;SDS011;11310;51.528;21.204;2022-07-10T03:42:49;2.30;;;1.17;;
22282;SDS011;11310;51.528;21.204;2022-07-10T03:45:17;2.72;;;1.30;;
22282;SDS011;11310;51.528;21.204;2022-07-10T03:47:48;2.67;;;1.38;;
22282;SDS011;11310;51.528;21.204;2022-07-10T03:50:17;2.05;;;1.33;;
22282;SDS011;11310;51.528;21.204;2022-07-10T03:52:45;3.90;;;1.80;;
22282;SDS011;11310;51.528;21.204;2022-07-10T03:55:13;2.30;;;1.50;;
22282;SDS011;11310;51.528;21.204;2022-07-10T03:57:42;2.13;;;1.38;;
22282;SDS011;11310;51.528;21.204;2022-07-10T04:00:23;4.25;;;1.60;;
22282;SDS011;11310;51.528;21.204;2022-07-10T04:02:55;3.53;;;1.65;;
22282;SDS011;11310;51.528;21.204;2022-07-10T04:05:25;2.33;;;1.20;;
22282;SDS011;11310;51.528;21.204;2022-07-10T04:07:57;2.65;;;1.33;;
22282;SDS011;11310;51.528;21.204;2022-07-10T04:10:30;5.20;;;1.50;;
22282;SDS011;11310;51.528;21.204;2022-07-10T04:13:01;2.58;;;1.55;;
22282;SDS011;11310;51.528;21.204;2022-07-10T04:15:30;1.85;;;1.33;;
22282;SDS011;11310;51.528;21.204;2022-07-10T04:18:01;3.85;;;1.80;;
22282;SDS011;11310;51.528;21.204;2022-07-10T04:20:30;4.85;;;1.58;;
22282;SDS011;11310;51.528;21.204;2022-07-10T04:22:59;4.15;;;1.02;;
22282;SDS011;11310;51.528;21.204;2022-07-10T04:25:30;2.58;;;1.50;;
22282;SDS011;11310;51.528;21.204;2022-07-10T04:27:59;4.28;;;1.50;;
22282;SDS011;11310;51.528;21.204;2022-07-10T04:30:31;2.33;;;1.45;;
22282;SDS011;11310;51.528;21.204;2022-07-10T04:33:02;3.15;;;1.45;;
22282;SDS011;11310;51.528;21.204;2022-07-10T04:35:31;4.15;;;1.70;;
22282;SDS011;11310;51.528;21.204;2022-07-10T04:38:00;3.88;;;1.67;;
22282;SDS011;11310;51.528;21.204;2022-07-10T04:40:29;2.22;;;1.35;;
22282;SDS011;11310;51.528;21.204;2022-07-10T04:42:57;2.00;;;1.35;;
22282;SDS011;11310;51.528;21.204;2022-07-10T04:45:27;3.67;;;1.60;;
22282;SDS011;11310;51.528;21.204;2022-07-10T04:47:56;7.03;;;1.70;;
22282;SDS011;11310;51.528;21.204;2022-07-10T04:50:26;2.75;;;1.70;;
22282;SDS011;11310;51.528;21.204;2022-07-10T04:52:55;4.15;;;1.45;;
22282;SDS011;11310;51.528;21.204;2022-07-10T04:55:25;3.38;;;1.48;;
22282;SDS011;11310;51.528;21.204;2022-07-10T04:57:53;1.90;;;1.10;;
22282;SDS011;11310;51.528;21.204;2022-07-10T05:00:23;2.70;;;1.30;;
22282;SDS011;11310;51.528;21.204;2022-07-10T05:02:52;2.70;;;1.48;;
22282;SDS011;11310;51.528;21.204;2022-07-10T05:05:20;5.82;;;1.52;;
22282;SDS011;11310;51.528;21.204;2022-07-10T05:07:50;3.20;;;1.73;;
22282;SDS011;11310;51.528;21.204;2022-07-10T05:10:19;3.72;;;2.53;;
22282;SDS011;11310;51.528;21.204;2022-07-10T05:12:47;2.03;;;1.10;;
22282;SDS011;11310;51.528;21.204;2022-07-10T05:15:15;2.83;;;1.30;;
22282;SDS011;11310;51.528;21.204;2022-07-10T05:17:46;2.10;;;1.50;;
22282;SDS011;11310;51.528;21.204;2022-07-10T05:20:16;3.45;;;1.52;;
22282;SDS011;11310;51.528;21.204;2022-07-10T05:22:45;3.03;;;1.80;;
22282;SDS011;11310;51.528;21.204;2022-07-10T05:25:15;3.42;;;1.40;;
22282;SDS011;11310;51.528;21.204;2022-07-10T05:27:44;5.13;;;1.67;;
22282;SDS011;11310;51.528;21.204;2022-07-10T05:30:12;2.30;;;1.48;;
22282;SDS011;11310;51.528;21.204;2022-07-10T05:32:42;3.28;;;1.40;;
22282;SDS011;11310;51.528;21.204;2022-07-10T05:35:11;5.28;;;1.73;;
22282;SDS011;11310;51.528;21.204;2022-07-10T05:37:40;10.13;;;1.85;;
22282;SDS011;11310;51.528;21.204;2022-07-10T05:40:09;2.78;;;1.60;;
22282;SDS011;11310;51.528;21.204;2022-07-10T05:42:40;6.03;;;1.50;;
22282;SDS011;11310;51.528;21.204;2022-07-10T05:45:09;4.10;;;1.67;;
22282;SDS011;11310;51.528;21.204;2022-07-10T05:47:38;3.38;;;1.35;;
22282;SDS011;11310;51.528;21.204;2022-07-10T05:50:06;2.97;;;1.42;;
22282;SDS011;11310;51.528;21.204;2022-07-10T05:52:35;3.92;;;1.42;;
22282;SDS011;11310;51.528;21.204;2022-07-10T05:55:04;3.42;;;1.40;;
22282;SDS011;11310;51.528;21.204;2022-07-10T05:57:34;3.20;;;1.48;;
22282;SDS011;11310;51.528;21.204;2022-07-10T06:00:06;2.63;;;1.50;;
22282;SDS011;11310;51.528;21.204;2022-07-10T06:02:39;4.40;;;1.38;;
22282;SDS011;11310;51.528;21.204;2022-07-10T06:05:08;2.08;;;1.27;;
22282;SDS011;11310;51.528;21.204;2022-07-10T06:07:37;3.17;;;1.55;;
22282;SDS011;11310;51.528;21.204;2022-07-10T06:10:06;2.85;;;1.75;;
22282;SDS011;11310;51.528;21.204;2022-07-10T06:15:08;1.13;;;1.02;;
22282;SDS011;11310;51.528;21.204;2022-07-10T06:17:44;3.25;;;1.23;;
22282;SDS011;11310;51.528;21.204;2022-07-10T06:20:13;4.80;;;1.30;;
22282;SDS011;11310;51.528;21.204;2022-07-10T06:22:41;3.35;;;1.45;;
22282;SDS011;11310;51.528;21.204;2022-07-10T06:25:10;3.58;;;1.58;;
22282;SDS011;11310;51.528;21.204;2022-07-10T06:27:39;3.65;;;1.50;;
22282;SDS011;11310;51.528;21.204;2022-07-10T06:30:10;2.97;;;1.45;;
22282;SDS011;11310;51.528;21.204;2022-07-10T06:32:40;4.70;;;1.70;;
22282;SDS011;11310;51.528;21.204;2022-07-10T06:35:12;2.72;;;1.33;;
22282;SDS011;11310;51.528;21.204;2022-07-10T06:37:40;2.22;;;1.20;;
22282;SDS011;11310;51.528;21.204;2022-07-10T06:40:09;4.28;;;1.48;;
22282;SDS011;11310;51.528;21.204;2022-07-10T06:42:40;5.05;;;1.58;;
22282;SDS011;11310;51.528;21.204;2022-07-10T06:47:45;2.47;;;1.30;;
22282;SDS011;11310;51.528;21.204;2022-07-10T06:50:36;3.95;;;1.13;;
22282;SDS011;11310;51.528;21.204;2022-07-10T06:53:05;3.10;;;1.15;;
22282;SDS011;11310;51.528;21.204;2022-07-10T06:55:34;1.80;;;1.33;;
22282;SDS011;11310;51.528;21.204;2022-07-10T06:58:03;3.45;;;1.30;;
22282;SDS011;11310;51.528;21.204;2022-07-10T07:00:33;2.70;;;1.50;;
22282;SDS011;11310;51.528;21.204;2022-07-10T07:03:02;5.05;;;1.50;;
22282;SDS011;11310;51.528;21.204;2022-07-10T07:05:31;3.30;;;1.20;;
22282;SDS011;11310;51.528;21.204;2022-07-10T07:07:59;5.18;;;1.50;;
22282;SDS011;11310;51.528;21.204;2022-07-10T07:10:28;2.65;;;1.20;;
22282;SDS011;11310;51.528;21.204;2022-07-10T07:12:57;2.67;;;1.20;;
22282;SDS011;11310;51.528;21.204;2022-07-10T07:15:26;2.95;;;1.40;;
22282;SDS011;11310;51.528;21.204;2022-07-10T07:17:56;3.83;;;1.42;;
22282;SDS011;11310;51.528;21.204;2022-07-10T07:20:35;3.28;;;1.23;;
22282;SDS011;11310;51.528;21.204;2022-07-10T07:23:23;2.67;;;1.25;;
22282;SDS011;11310;51.528;21.204;2022-07-10T07:25:52;3.63;;;1.33;;
22282;SDS011;11310;51.528;21.204;2022-07-10T07:28:22;2.80;;;1.15;;
22282;SDS011;11310;51.528;21.204;2022-07-10T07:30:51;3.38;;;1.25;;
22282;SDS011;11310;51.528;21.204;2022-07-10T07:33:21;6.72;;;1.70;;
22282;SDS011;11310;51.528;21.204;2022-07-10T07:35:50;3.63;;;1.33;;
22282;SDS011;11310;51.528;21.204;2022-07-10T07:38:19;3.90;;;1.40;;
22282;SDS011;11310;51.528;21.204;2022-07-10T07:40:48;2.80;;;1.05;;
22282;SDS011;11310;51.528;21.204;2022-07-10T07:43:17;2.97;;;1.20;;
22282;SDS011;11310;51.528;21.204;2022-07-10T07:45:46;2.83;;;0.90;;
22282;SDS011;11310;51.528;21.204;2022-07-10T07:48:16;2.15;;;0.93;;
22282;SDS011;11310;51.528;21.204;2022-07-10T07:50:46;3.75;;;1.40;;
22282;SDS011;11310;51.528;21.204;2022-07-10T07:53:15;1.92;;;1.00;;
22282;SDS011;11310;51.528;21.204;2022-07-10T07:55:45;3.33;;;1.10;;
22282;SDS011;11310;51.528;21.204;2022-07-10T07:58:14;5.45;;;1.27;;
22282;SDS011;11310;51.528;21.204;2022-07-10T08:00:43;2.78;;;0.93;;
22282;SDS011;11310;51.528;21.204;2022-07-10T08:03:12;4.43;;;1.02;;
22282;SDS011;11310;51.528;21.204;2022-07-10T08:05:41;3.08;;;0.98;;
22282;SDS011;11310;51.528;21.204;2022-07-10T08:08:12;6.45;;;1.35;;
22282;SDS011;11310;51.528;21.204;2022-07-10T08:10:41;3.38;;;1.08;;
22282;SDS011;11310;51.528;21.204;2022-07-10T08:13:11;3.40;;;0.93;;
22282;SDS011;11310;51.528;21.204;2022-07-10T08:15:40;2.72;;;1.00;;
22282;SDS011;11310;51.528;21.204;2022-07-10T08:18:09;3.67;;;0.98;;
22282;SDS011;11310;51.528;21.204;2022-07-10T08:20:38;2.70;;;1.00;;
22282;SDS011;11310;51.528;21.204;2022-07-10T08:23:07;3.17;;;1.00;;
22282;SDS011;11310;51.528;21.204;2022-07-10T08:25:38;1.85;;;0.80;;
22282;SDS011;11310;51.528;21.204;2022-07-10T08:28:07;4.78;;;1.20;;
22282;SDS011;11310;51.528;21.204;2022-07-10T08:30:37;2.45;;;0.90;;
22282;SDS011;11310;51.528;21.204;2022-07-10T08:33:06;4.32;;;1.10;;
22282;SDS011;11310;51.528;21.204;2022-07-10T08:35:36;2.25;;;0.82;;
22282;SDS011;11310;51.528;21.204;2022-07-10T08:38:07;3.58;;;1.13;;
22282;SDS011;11310;51.528;21.204;2022-07-10T08:40:42;8.73;;;1.55;;
22282;SDS011;11310;51.528;21.204;2022-07-10T08:43:11;3.43;;;1.10;;
22282;SDS011;11310;51.528;21.204;2022-07-10T08:45:41;1.88;;;0.88;;
22282;SDS011;11310;51.528;21.204;2022-07-10T08:48:11;6.35;;;0.90;;
22282;SDS011;11310;51.528;21.204;2022-07-10T08:50:44;4.10;;;0.90;;
22282;SDS011;11310;51.528;21.204;2022-07-10T08:53:16;2.88;;;0.90;;
22282;SDS011;11310;51.528;21.204;2022-07-10T08:55:55;4.25;;;1.15;;
22282;SDS011;11310;51.528;21.204;2022-07-10T08:58:24;5.38;;;1.13;;
22282;SDS011;11310;51.528;21.204;2022-07-10T09:00:55;3.05;;;1.23;;
22282;SDS011;11310;51.528;21.204;2022-07-10T09:03:25;2.83;;;1.02;;
22282;SDS011;11310;51.528;21.204;2022-07-10T09:05:55;1.88;;;0.70;;
22282;SDS011;11310;51.528;21.204;2022-07-10T09:08:25;2.08;;;0.85;;
22282;SDS011;11310;51.528;21.204;2022-07-10T09:11:16;5.10;;;1.77;;
22282;SDS011;11310;51.528;21.204;2022-07-10T09:13:50;4.95;;;1.77;;
22282;SDS011;11310;51.528;21.204;2022-07-10T09:16:20;2.85;;;1.10;;
22282;SDS011;11310;51.528;21.204;2022-07-10T09:18:53;7.55;;;2.92;;
22282;SDS011;11310;51.528;21.204;2022-07-10T09:21:23;3.85;;;1.73;;
22282;SDS011;11310;51.528;21.204;2022-07-10T09:23:58;3.97;;;1.20;;
22282;SDS011;11310;51.528;21.204;2022-07-10T09:26:42;3.72;;;1.50;;
22282;SDS011;11310;51.528;21.204;2022-07-10T09:29:11;4.13;;;1.15;;
22282;SDS011;11310;51.528;21.204;2022-07-10T09:31:50;2.55;;;1.00;;
22282;SDS011;11310;51.528;21.204;2022-07-10T09:34:34;2.17;;;1.10;;
22282;SDS011;11310;51.528;21.204;2022-07-10T09:37:21;2.85;;;0.73;;
22282;SDS011;11310;51.528;21.204;2022-07-10T09:39:56;3.97;;;1.10;;
22282;SDS011;11310;51.528;21.204;2022-07-10T09:42:34;2.45;;;0.80;;
22282;SDS011;11310;51.528;21.204;2022-07-10T09:45:18;1.48;;;0.80;;
22282;SDS011;11310;51.528;21.204;2022-07-10T09:47:55;4.05;;;1.05;;
22282;SDS011;11310;51.528;21.204;2022-07-10T09:50:32;1.67;;;0.80;;
22282;SDS011;11310;51.528;21.204;2022-07-10T09:53:10;2.15;;;1.08;;
22282;SDS011;11310;51.528;21.204;2022-07-10T09:55:43;1.90;;;0.70;;
22282;SDS011;11310;51.528;21.204;2022-07-10T09:58:17;9.68;;;1.00;;
22282;SDS011;11310;51.528;21.204;2022-07-10T10:00:53;4.03;;;1.27;;
22282;SDS011;11310;51.528;21.204;2022-07-10T10:05:55;1.63;;;0.90;;
22282;SDS011;11310;51.528;21.204;2022-07-10T10:08:31;5.25;;;1.23;;
22282;SDS011;11310;51.528;21.204;2022-07-10T10:11:06;2.45;;;1.15;;
22282;SDS011;11310;51.528;21.204;2022-07-10T10:13:43;5.32;;;0.65;;
22282;SDS011;11310;51.528;21.204;2022-07-10T10:16:15;1.50;;;0.80;;
22282;SDS011;11310;51.528;21.204;2022-07-10T10:18:47;3.35;;;0.98;;
22282;SDS011;11310;51.528;21.204;2022-07-10T10:21:48;2.13;;;0.70;;
22282;SDS011;11310;51.528;21.204;2022-07-10T10:24:17;4.38;;;0.88;;
22282;SDS011;11310;51.528;21.204;2022-07-10T10:26:46;3.72;;;0.75;;
22282;SDS011;11310;51.528;21.204;2022-07-10T10:29:17;2.22;;;0.80;;
22282;SDS011;11310;51.528;21.204;2022-07-10T10:31:49;1.80;;;0.75;;
22282;SDS011;11310;51.528;21.204;2022-07-10T10:34:40;3.40;;;1.00;;
22282;SDS011;11310;51.528;21.204;2022-07-10T10:40:11;3.83;;;1.33;;
22282;SDS011;11310;51.528;21.204;2022-07-10T10:42:59;3.40;;;0.93;;
22282;SDS011;11310;51.528;21.204;2022-07-10T10:45:46;4.53;;;0.95;;
22282;SDS011;11310;51.528;21.204;2022-07-10T10:48:19;2.28;;;1.00;;
22282;SDS011;11310;51.528;21.204;2022-07-10T10:51:04;2.65;;;1.20;;
22282;SDS011;11310;51.528;21.204;2022-07-10T10:53:33;3.13;;;1.10;;
22282;SDS011;11310;51.528;21.204;2022-07-10T10:56:21;1.95;;;0.93;;
22282;SDS011;11310;51.528;21.204;2022-07-10T10:58:53;2.47;;;0.90;;
22282;SDS011;11310;51.528;21.204;2022-07-10T11:01:27;2.38;;;1.00;;
22282;SDS011;11310;51.528;21.204;2022-07-10T11:04:17;1.73;;;0.70;;
22282;SDS011;11310;51.528;21.204;2022-07-10T11:06:47;2.40;;;0.73;;
22282;SDS011;11310;51.528;21.204;2022-07-10T11:09:23;1.83;;;0.30;;
22282;SDS011;11310;51.528;21.204;2022-07-10T11:11:59;2.33;;;0.55;;
22282;SDS011;11310;51.528;21.204;2022-07-10T11:14:30;1.88;;;0.60;;
22282;SDS011;11310;51.528;21.204;2022-07-10T11:17:01;5.35;;;1.02;;
22282;SDS011;11310;51.528;21.204;2022-07-10T11:19:39;5.57;;;0.80;;
22282;SDS011;11310;51.528;21.204;2022-07-10T11:22:16;2.65;;;0.40;;
22282;SDS011;11310;51.528;21.204;2022-07-10T11:27:51;6.78;;;0.60;;
22282;SDS011;11310;51.528;21.204;2022-07-10T11:30:26;1.63;;;0.60;;
22282;SDS011;11310;51.528;21.204;2022-07-10T11:33:04;4.88;;;0.80;;
22282;SDS011;11310;51.528;21.204;2022-07-10T11:35:34;4.38;;;0.80;;
22282;SDS011;11310;51.528;21.204;2022-07-10T11:38:05;3.15;;;0.45;;
22282;SDS011;11310;51.528;21.204;2022-07-10T11:40:37;6.18;;;1.10;;
22282;SDS011;11310;51.528;21.204;2022-07-10T11:45:43;1.48;;;0.60;;
22282;SDS011;11310;51.528;21.204;2022-07-10T11:48:17;2.67;;;0.70;;
22282;SDS011;11310;51.528;21.204;2022-07-10T11:50:47;2.05;;;0.68;;
22282;SDS011;11310;51.528;21.204;2022-07-10T11:53:21;1.75;;;0.60;;
22282;SDS011;11310;51.528;21.204;2022-07-10T11:55:51;4.38;;;0.93;;
22282;SDS011;11310;51.528;21.204;2022-07-10T11:58:24;2.88;;;1.08;;
22282;SDS011;11310;51.528;21.204;2022-07-10T12:00:57;2.22;;;0.60;;
22282;SDS011;11310;51.528;21.204;2022-07-10T12:03:29;3.13;;;1.25;;
22282;SDS011;11310;51.528;21.204;2022-07-10T12:06:05;2.47;;;0.80;;
22282;SDS011;11310;51.528;21.204;2022-07-10T12:08:44;3.28;;;0.57;;
22282;SDS011;11310;51.528;21.204;2022-07-10T12:11:13;2.13;;;0.70;;
22282;SDS011;11310;51.528;21.204;2022-07-10T12:13:45;2.20;;;0.68;;
22282;SDS011;11310;51.528;21.204;2022-07-10T12:16:20;2.53;;;0.70;;
22282;SDS011;11310;51.528;21.204;2022-07-10T12:18:54;1.33;;;0.65;;
22282;SDS011;11310;51.528;21.204;2022-07-10T12:21:34;4.05;;;0.90;;
22282;SDS011;11310;51.528;21.204;2022-07-10T12:24:04;5.07;;;0.88;;
22282;SDS011;11310;51.528;21.204;2022-07-10T12:26:38;3.25;;;0.60;;
22282;SDS011;11310;51.528;21.204;2022-07-10T12:29:11;2.47;;;0.47;;
22282;SDS011;11310;51.528;21.204;2022-07-10T12:31:47;2.22;;;0.55;;
22282;SDS011;11310;51.528;21.204;2022-07-10T12:34:32;2.77;;;0.67;;
22282;SDS011;11310;51.528;21.204;2022-07-10T12:37:06;4.95;;;0.60;;
22282;SDS011;11310;51.528;21.204;2022-07-10T12:39:45;1.13;;;0.30;;
22282;SDS011;11310;51.528;21.204;2022-07-10T12:42:23;3.47;;;0.60;;
22282;SDS011;11310;51.528;21.204;2022-07-10T12:44:53;1.25;;;0.60;;
22282;SDS011;11310;51.528;21.204;2022-07-10T12:47:23;1.52;;;0.50;;
22282;SDS011;11310;51.528;21.204;2022-07-10T12:49:55;3.50;;;0.50;;
22282;SDS011;11310;51.528;21.204;2022-07-10T12:52:27;2.70;;;0.50;;
22282;SDS011;11310;51.528;21.204;2022-07-10T12:55:09;1.88;;;0.30;;
22282;SDS011;11310;51.528;21.204;2022-07-10T12:57:44;2.63;;;0.52;;
22282;SDS011;11310;51.528;21.204;2022-07-10T13:00:14;2.05;;;0.40;;
22282;SDS011;11310;51.528;21.204;2022-07-10T13:02:45;1.27;;;0.38;;
22282;SDS011;11310;51.528;21.204;2022-07-10T13:05:28;1.85;;;0.30;;
22282;SDS011;11310;51.528;21.204;2022-07-10T13:08:06;3.00;;;0.50;;
22282;SDS011;11310;51.528;21.204;2022-07-10T13:10:38;2.67;;;0.50;;
22282;SDS011;11310;51.528;21.204;2022-07-10T13:15:45;1.55;;;0.45;;
22282;SDS011;11310;51.528;21.204;2022-07-10T13:18:18;2.90;;;0.77;;
22282;SDS011;11310;51.528;21.204;2022-07-10T13:20:51;1.08;;;0.50;;
22282;SDS011;11310;51.528;21.204;2022-07-10T13:23:27;3.30;;;0.50;;
22282;SDS011;11310;51.528;21.204;2022-07-10T13:25:58;1.30;;;0.50;;
22282;SDS011;11310;51.528;21.204;2022-07-10T13:28:28;1.85;;;0.45;;
22282;SDS011;11310;51.528;21.204;2022-07-10T13:30:57;1.10;;;0.30;;
22282;SDS011;11310;51.528;21.204;2022-07-10T13:33:26;2.55;;;0.50;;
22282;SDS011;11310;51.528;21.204;2022-07-10T13:36:03;2.28;;;0.93;;
22282;SDS011;11310;51.528;21.204;2022-07-10T13:38:33;2.75;;;0.38;;
22282;SDS011;11310;51.528;21.204;2022-07-10T13:41:05;2.08;;;0.50;;
22282;SDS011;11310;51.528;21.204;2022-07-10T13:43:34;2.28;;;0.45;;
22282;SDS011;11310;51.528;21.204;2022-07-10T13:46:03;3.42;;;0.55;;
22282;SDS011;11310;51.528;21.204;2022-07-10T13:48:38;6.05;;;0.80;;
22282;SDS011;11310;51.528;21.204;2022-07-10T13:51:22;6.13;;;0.80;;
22282;SDS011;11310;51.528;21.204;2022-07-10T13:56:22;2.90;;;0.75;;
22282;SDS011;11310;51.528;21.204;2022-07-10T13:58:55;4.70;;;0.63;;
22282;SDS011;11310;51.528;21.204;2022-07-10T14:01:26;2.30;;;0.60;;
22282;SDS011;11310;51.528;21.204;2022-07-10T14:04:01;1.20;;;0.43;;
22282;SDS011;11310;51.528;21.204;2022-07-10T14:06:34;8.45;;;0.95;;
22282;SDS011;11310;51.528;21.204;2022-07-10T14:09:03;3.88;;;0.63;;
22282;SDS011;11310;51.528;21.204;2022-07-10T14:11:32;1.85;;;0.50;;
22282;SDS011;11310;51.528;21.204;2022-07-10T14:14:01;3.00;;;0.40;;
22282;SDS011;11310;51.528;21.204;2022-07-10T14:16:30;1.38;;;0.57;;
22282;SDS011;11310;51.528;21.204;2022-07-10T14:18:59;2.65;;;0.70;;
22282;SDS011;11310;51.528;21.204;2022-07-10T14:21:30;3.13;;;0.50;;
22282;SDS011;11310;51.528;21.204;2022-07-10T14:24:03;1.27;;;0.30;;
22282;SDS011;11310;51.528;21.204;2022-07-10T14:26:33;1.55;;;0.68;;
22282;SDS011;11310;51.528;21.204;2022-07-10T14:29:02;3.28;;;0.60;;
22282;SDS011;11310;51.528;21.204;2022-07-10T14:31:32;1.38;;;0.32;;
22282;SDS011;11310;51.528;21.204;2022-07-10T14:34:01;1.90;;;0.40;;
22282;SDS011;11310;51.528;21.204;2022-07-10T14:36:31;3.88;;;0.55;;
22282;SDS011;11310;51.528;21.204;2022-07-10T14:39:00;2.03;;;0.60;;
22282;SDS011;11310;51.528;21.204;2022-07-10T14:41:31;1.92;;;0.60;;
22282;SDS011;11310;51.528;21.204;2022-07-10T14:44:01;1.58;;;0.20;;
22282;SDS011;11310;51.528;21.204;2022-07-10T14:46:29;1.13;;;0.40;;
22282;SDS011;11310;51.528;21.204;2022-07-10T14:49:02;2.42;;;0.35;;
22282;SDS011;11310;51.528;21.204;2022-07-10T14:51:30;6.30;;;0.70;;
22282;SDS011;11310;51.528;21.204;2022-07-10T14:54:03;0.55;;;0.45;;
22282;SDS011;11310;51.528;21.204;2022-07-10T14:56:33;2.83;;;0.40;;
22282;SDS011;11310;51.528;21.204;2022-07-10T14:59:02;2.65;;;0.43;;
22282;SDS011;11310;51.528;21.204;2022-07-10T15:01:41;0.70;;;0.32;;
22282;SDS011;11310;51.528;21.204;2022-07-10T15:04:10;1.85;;;0.30;;
22282;SDS011;11310;51.528;21.204;2022-07-10T15:06:38;2.60;;;0.60;;
22282;SDS011;11310;51.528;21.204;2022-07-10T15:09:08;2.28;;;0.60;;
22282;SDS011;11310;51.528;21.204;2022-07-10T15:11:37;1.92;;;0.40;;
22282;SDS011;11310;51.528;21.204;2022-07-10T15:14:20;1.40;;;0.32;;
22282;SDS011;11310;51.528;21.204;2022-07-10T15:16:52;2.17;;;0.40;;
22282;SDS011;11310;51.528;21.204;2022-07-10T15:19:21;0.90;;;0.32;;
22282;SDS011;11310;51.528;21.204;2022-07-10T15:24:23;1.33;;;0.32;;